PILOTS ONLINE: 313    ATC ONLINE: 32

KHND

Henderson Executive Airport

Location

City Las Vegas
Country  United States
Latitude 35° 58' 22" N
Longitude 115° 8' 2" W
Elevation 2492 ft
Type Small Airport

Map

Weather

METAR
2014/10/26 03:56
KHND 260356Z AUTO 19009KT 10SM CLR 23/04 A2997 RMK AO2 T02270044 SLP129
TAF
2014/10/25 18:33
TAF KHND 251730Z 2518/2618 18011KT P6SM FEW100 
     FM251900 21017G26KT P6SM SCT100 
     FM260300 20012G20KT P6SM SCT100

Runways

17L/35R 5001 ft / 75 ft
17R/35L 6501 ft / 100 ft

Outbound flights

Callsign Flying to Pilot ATD/STD ETA Aircraft

Inbound flights

Callsign Flying from Pilot ATD ETA Aircraft